Time;durP1;ratioP1;P1;durP2;ratioP2;P2;SDS_P1;SDS_P2;PMS_P1;PMS_P2;Temp;Humidity;BMP_temperature;BMP_pressure;BME280_temperature;BME280_humidity;BME280_pressure;Samples;Min_cycle;Max_cycle;Signal;HPM_P1;HPM_P2
2023/09/24 00:00:11;;;;;;;1.25;0.85;;;;;;;;;;1030405;28;20509;-71
2023/09/24 00:00:41;;;;;;;1.13;1.02;;;;;;;;;;1029879;28;20032;-71
2023/09/24 00:01:13;;;;;;;0.10;0.10;;;;;;;;;;1029986;28;20399;-71
2023/09/24 00:01:44;;;;;;;1.08;1.02;;;;;;;;;;1030224;28;20023;-72
2023/09/24 00:02:14;;;;;;;5.18;3.05;;;;;;;;;;1030337;28;20018;-72
2023/09/24 00:02:45;;;;;;;0.50;0.50;;;;;;;;;;1030389;28;20128;-72
2023/09/24 00:03:15;;;;;;;1.23;0.65;;;;;;;;;;1030370;28;20108;-72
2023/09/24 00:03:46;;;;;;;16.65;2.55;;;;;;;;;;1030087;28;20108;-72
2023/09/24 00:04:17;;;;;;;4.95;2.13;;;;;;;;;;1029881;28;20023;-71
2023/09/24 00:04:48;;;;;;;1.92;1.83;;;;;;;;;;1030119;28;20432;-74
2023/09/24 00:05:19;;;;;;;3.30;0.90;;;;;;;;;;1030438;28;20022;-74
2023/09/24 00:05:50;;;;;;;1.90;1.75;;;;;;;;;;1030479;28;20639;-74
2023/09/24 00:06:21;;;;;;;0.30;0.30;;;;;;;;;;1028596;28;20571;-74
2023/09/24 00:06:51;;;;;;;0.20;0.20;;;;;;;;;;1029923;28;20031;-74
2023/09/24 00:07:22;;;;;;;0.10;0.10;;;;;;;;;;1030125;28;20053;-74
2023/09/24 00:07:52;;;;;;;0.85;0.85;;;;;;;;;;1029925;28;20037;-74
2023/09/24 00:08:22;;;;;;;1.25;1.00;;;;;;;;;;1037472;23;20113;-74
2023/09/24 00:08:53;;;;;;;1.55;1.35;;;;;;;;;;1029734;28;20512;-74
2023/09/24 00:09:23;;;;;;;0.98;0.88;;;;;;;;;;1030945;28;20097;-73
2023/09/24 00:09:56;;;;;;;0.63;0.63;;;;;;;;;;1030035;28;20101;-73
2023/09/24 00:10:26;;;;;;;0.85;0.85;;;;;;;;;;1029937;28;20030;-74
2023/09/24 00:10:57;;;;;;;2.15;1.17;;;;;;;;;;1029795;28;20054;-74
2023/09/24 00:11:27;;;;;;;0.30;0.30;;;;;;;;;;1030246;28;20431;-74
2023/09/24 00:11:58;;;;;;;1.65;1.20;;;;;;;;;;1030323;28;20029;-73
2023/09/24 00:12:28;;;;;;;2.05;1.95;;;;;;;;;;1030366;28;20029;-73
2023/09/24 00:12:59;;;;;;;2.50;1.63;;;;;;;;;;1030182;28;20101;-73
2023/09/24 00:13:32;;;;;;;0.10;0.10;;;;;;;;;;1029908;28;20574;-73
2023/09/24 00:14:02;;;;;;;0.98;0.70;;;;;;;;;;1029970;28;20031;-73
2023/09/24 00:14:33;;;;;;;0.68;0.68;;;;;;;;;;1030021;28;20117;-73
2023/09/24 00:15:04;;;;;;;3.20;1.70;;;;;;;;;;1029958;28;20383;-73
2023/09/24 00:15:35;;;;;;;0.43;0.43;;;;;;;;;;1029688;28;20038;-73
2023/09/24 00:16:09;;;;;;;0.25;0.25;;;;;;;;;;1029529;28;20482;-74
2023/09/24 00:16:40;;;;;;;0.63;0.63;;;;;;;;;;1029514;28;20033;-73
2023/09/24 00:17:10;;;;;;;1.40;1.20;;;;;;;;;;1029761;28;20037;-72
2023/09/24 00:17:40;;;;;;;2.40;2.05;;;;;;;;;;1029717;28;20529;-72
2023/09/24 00:18:11;;;;;;;0.88;0.88;;;;;;;;;;1030822;28;20018;-73
2023/09/24 00:18:41;;;;;;;0.90;0.90;;;;;;;;;;1030197;28;20489;-73
2023/09/24 00:19:13;;;;;;;0.35;0.35;;;;;;;;;;1029826;28;20545;-73
2023/09/24 00:19:43;;;;;;;0.82;0.75;;;;;;;;;;1029228;28;20031;-73
2023/09/24 00:20:16;;;;;;;2.55;2.25;;;;;;;;;;1029739;28;20018;-73
2023/09/24 00:20:46;;;;;;;1.35;0.63;;;;;;;;;;1030024;28;20070;-73
2023/09/24 00:21:18;;;;;;;0.40;0.40;;;;;;;;;;1029895;28;20026;-73
2023/09/24 00:21:49;;;;;;;0.38;0.38;;;;;;;;;;1030172;28;20036;-74
2023/09/24 00:22:19;;;;;;;0.35;0.35;;;;;;;;;;1028903;28;20442;-73
2023/09/24 00:22:49;;;;;;;0.20;0.20;;;;;;;;;;1030170;28;20018;-73
2023/09/24 00:23:20;;;;;;;1.20;0.75;;;;;;;;;;1029843;28;20442;-73
2023/09/24 00:23:50;;;;;;;0.25;0.25;;;;;;;;;;1030015;28;20027;-74
2023/09/24 00:24:21;;;;;;;2.97;2.60;;;;;;;;;;1029662;28;20022;-74
2023/09/24 00:24:51;;;;;;;0.68;0.68;;;;;;;;;;1029505;28;20630;-73
2023/09/24 00:25:23;;;;;;;1.15;1.08;;;;;;;;;;1029730;28;20169;-73
2023/09/24 00:25:55;;;;;;;1.48;0.85;;;;;;;;;;1028948;28;20367;-74
2023/09/24 00:26:26;;;;;;;0.80;0.63;;;;;;;;;;1030012;28;20125;-74
2023/09/24 00:26:56;;;;;;;4.18;2.35;;;;;;;;;;1029426;28;20035;-74
2023/09/24 00:27:27;;;;;;;1.73;1.63;;;;;;;;;;1029631;28;20501;-72
2023/09/24 00:27:58;;;;;;;0.45;0.45;;;;;;;;;;1029896;28;20030;-72
2023/09/24 00:28:28;;;;;;;0.35;0.35;;;;;;;;;;1030153;28;20027;-72
2023/09/24 00:28:59;;;;;;;1.73;1.45;;;;;;;;;;1030359;28;20054;-71
2023/09/24 00:29:29;;;;;;;2.60;2.17;;;;;;;;;;1029925;28;20422;-71
2023/09/24 00:30:00;;;;;;;0.68;0.68;;;;;;;;;;1029923;28;20501;-71
2023/09/24 00:30:33;;;;;;;0.30;0.30;;;;;;;;;;1030009;28;20101;-71
2023/09/24 00:31:03;;;;;;;3.10;1.58;;;;;;;;;;1030292;28;20026;-72
2023/09/24 00:31:34;;;;;;;0.38;0.38;;;;;;;;;;1029947;28;20030;-73
2023/09/24 00:32:04;;;;;;;0.47;0.47;;;;;;;;;;1029901;28;20034;-73
2023/09/24 00:32:35;;;;;;;1.50;1.27;;;;;;;;;;1029923;28;20027;-73
2023/09/24 00:33:06;;;;;;;1.15;0.70;;;;;;;;;;1029965;28;20026;-74
2023/09/24 00:33:36;;;;;;;0.10;0.10;;;;;;;;;;1029480;28;20133;-74
2023/09/24 00:34:07;;;;;;;4.90;2.00;;;;;;;;;;1029893;28;20044;-72
2023/09/24 00:34:38;;;;;;;2.50;1.38;;;;;;;;;;1029478;28;20109;-72
2023/09/24 00:35:10;;;;;;;0.30;0.30;;;;;;;;;;1029599;28;20027;-71
2023/09/24 00:35:41;;;;;;;0.10;0.10;;;;;;;;;;1029567;28;20027;-71
2023/09/24 00:36:12;;;;;;;1.88;1.77;;;;;;;;;;1031808;28;20038;-71
2023/09/24 00:36:43;;;;;;;2.00;1.80;;;;;;;;;;1030635;28;20023;-71
2023/09/24 00:37:13;;;;;;;1.08;1.08;;;;;;;;;;1031570;28;20034;-71
2023/09/24 00:37:44;;;;;;;0.82;0.70;;;;;;;;;;1024982;28;20027;-71
2023/09/24 00:38:14;;;;;;;12.50;0.75;;;;;;;;;;1025900;28;20033;-71
2023/09/24 00:38:45;;;;;;;0.55;0.55;;;;;;;;;;1025231;28;20541;-71
2023/09/24 00:39:16;;;;;;;1.17;0.55;;;;;;;;;;1025576;28;20467;-72
2023/09/24 00:39:46;;;;;;;1.58;1.48;;;;;;;;;;1030033;28;20026;-72
2023/09/24 00:40:18;;;;;;;0.47;0.47;;;;;;;;;;1029742;28;20061;-72
2023/09/24 00:40:48;;;;;;;1.77;1.65;;;;;;;;;;1029197;28;20027;-72
2023/09/24 00:41:19;;;;;;;1.95;1.20;;;;;;;;;;1029838;28;20041;-71
2023/09/24 00:41:49;;;;;;;0.90;0.70;;;;;;;;;;1029678;28;20402;-74
2023/09/24 00:42:22;;;;;;;1.27;1.02;;;;;;;;;;1029838;28;20019;-74
2023/09/24 00:42:53;;;;;;;3.28;2.35;;;;;;;;;;1029984;28;20038;-74
2023/09/24 00:43:24;;;;;;;1.45;1.38;;;;;;;;;;1029802;28;20030;-74
2023/09/24 00:43:57;;;;;;;0.20;0.20;;;;;;;;;;1029583;28;20541;-74
2023/09/24 00:44:27;;;;;;;0.10;0.10;;;;;;;;;;1030506;28;20027;-74
2023/09/24 00:44:59;;;;;;;15.93;3.58;;;;;;;;;;1030179;28;20053;-74
2023/09/24 00:45:30;;;;;;;8.20;1.63;;;;;;;;;;1029733;28;20096;-74
2023/09/24 00:46:03;;;;;;;6.38;1.95;;;;;;;;;;1029566;28;20018;-74
2023/09/24 00:46:33;;;;;;;0.40;0.38;;;;;;;;;;1029470;28;20052;-75
2023/09/24 00:47:04;;;;;;;1.02;0.93;;;;;;;;;;1029390;28;20057;-75
2023/09/24 00:47:37;;;;;;;1.08;0.63;;;;;;;;;;1024972;28;20023;-75
2023/09/24 00:48:07;;;;;;;0.80;0.80;;;;;;;;;;1025928;28;20038;-75
2023/09/24 00:48:38;;;;;;;30.67;2.55;;;;;;;;;;1025687;28;20086;-74
2023/09/24 00:49:08;;;;;;;0.28;0.28;;;;;;;;;;1025742;28;20033;-75
2023/09/24 00:49:39;;;;;;;2.08;1.10;;;;;;;;;;1029793;28;20023;-75
2023/09/24 00:50:10;;;;;;;0.25;0.25;;;;;;;;;;1029670;28;20060;-74
2023/09/24 00:50:41;;;;;;;0.38;0.38;;;;;;;;;;1029372;28;20072;-74
2023/09/24 00:51:18;;;;;;;0.10;0.10;;;;;;;;;;1025444;28;20443;-74
2023/09/24 00:51:49;;;;;;;1.85;1.13;;;;;;;;;;1024282;28;20467;-74
2023/09/24 00:52:20;;;;;;;1.27;0.38;;;;;;;;;;1026100;28;20037;-74
2023/09/24 00:52:51;;;;;;;0.52;0.45;;;;;;;;;;1026698;28;20026;-74
2023/09/24 00:53:22;;;;;;;1.85;1.38;;;;;;;;;;1030010;28;20030;-75
2023/09/24 00:53:53;;;;;;;1.33;0.77;;;;;;;;;;1029859;28;20034;-74
2023/09/24 00:54:24;;;;;;;0.40;0.40;;;;;;;;;;1029835;28;20031;-75
2023/09/24 00:54:56;;;;;;;1.10;0.88;;;;;;;;;;1029609;28;20482;-74
2023/09/24 00:55:26;;;;;;;3.03;1.02;;;;;;;;;;1028677;28;20025;-72
2023/09/24 00:55:57;;;;;;;0.68;0.68;;;;;;;;;;1029461;28;20034;-72
2023/09/24 00:56:28;;;;;;;3.30;0.47;;;;;;;;;;1029880;28;20527;-72
2023/09/24 00:56:58;;;;;;;0.68;0.68;;;;;;;;;;1029899;28;20026;-72
2023/09/24 00:57:32;;;;;;;0.45;0.45;;;;;;;;;;1029681;28;20082;-72
2023/09/24 00:58:04;;;;;;;0.73;0.73;;;;;;;;;;1029944;28;20034;-72
2023/09/24 00:58:35;;;;;;;0.20;0.20;;;;;;;;;;1027089;28;20456;-72
2023/09/24 00:59:08;;;;;;;2.17;1.00;;;;;;;;;;1027699;28;20035;-72
2023/09/24 00:59:38;;;;;;;0.77;0.77;;;;;;;;;;1029629;28;20026;-72
2023/09/24 01:00:16;;;;;;;1.70;1.60;;;;;;;;;;1029086;28;20112;-72
2023/09/24 01:00:47;;;;;;;0.47;0.47;;;;;;;;;;1030689;28;20030;-72
2023/09/24 01:01:19;;;;;;;0.10;0.10;;;;;;;;;;1031691;28;20383;-75
2023/09/24 01:01:50;;;;;;;3.20;0.73;;;;;;;;;;1030788;28;20065;-75
2023/09/24 01:02:20;;;;;;;7.68;3.15;;;;;;;;;;1031653;28;20037;-74
2023/09/24 01:02:51;;;;;;;1.00;0.85;;;;;;;;;;1027626;28;20019;-74
2023/09/24 01:03:26;;;;;;;6.15;1.85;;;;;;;;;;1024901;28;20545;-74
2023/09/24 01:03:56;;;;;;;1.23;1.13;;;;;;;;;;1025777;28;20102;-74
2023/09/24 01:04:27;;;;;;;4.07;1.60;;;;;;;;;;1022365;29;20082;-74
2023/09/24 01:05:00;;;;;;;0.52;0.52;;;;;;;;;;1024920;28;20423;-72
2023/09/24 01:05:30;;;;;;;0.20;0.20;;;;;;;;;;1021426;29;20061;-72
2023/09/24 01:06:01;;;;;;;0.55;0.55;;;;;;;;;;1022202;29;20045;-72
2023/09/24 01:06:32;;;;;;;0.75;0.73;;;;;;;;;;1026308;28;20023;-72
2023/09/24 01:07:02;;;;;;;0.88;0.73;;;;;;;;;;1025524;28;20066;-74
2023/09/24 01:07:33;;;;;;;2.53;1.17;;;;;;;;;;1030433;28;20019;-74
2023/09/24 01:08:04;;;;;;;3.58;1.15;;;;;;;;;;1030192;28;20023;-74
2023/09/24 01:08:35;;;;;;;1.90;0.75;;;;;;;;;;1029949;28;20133;-74
2023/09/24 01:09:09;;;;;;;0.50;0.50;;;;;;;;;;1031569;28;20026;-74
2023/09/24 01:09:42;;;;;;;0.98;0.98;;;;;;;;;;1027511;28;20121;-74
2023/09/24 01:10:14;;;;;;;0.50;0.47;;;;;;;;;;1027730;28;20030;-74
2023/09/24 01:10:46;;;;;;;0.50;0.50;;;;;;;;;;1025805;28;20555;-74
2023/09/24 01:11:17;;;;;;;0.47;0.47;;;;;;;;;;1025426;28;20034;-74
2023/09/24 01:11:49;;;;;;;1.58;1.48;;;;;;;;;;1023643;29;20043;-72
2023/09/24 01:12:21;;;;;;;1.75;1.48;;;;;;;;;;1022308;28;20110;-72
2023/09/24 01:12:55;;;;;;;1.20;1.10;;;;;;;;;;1026006;28;20073;-72
2023/09/24 01:13:35;;;;;;;0.60;0.60;;;;;;;;;;1026368;28;20034;-72
2023/09/24 01:14:07;;;;;;;2.20;1.40;;;;;;;;;;1030078;28;20109;-72
2023/09/24 01:14:38;;;;;;;4.43;1.38;;;;;;;;;;1030840;28;20031;-72
2023/09/24 01:15:13;;;;;;;2.70;0.63;;;;;;;;;;1029768;28;20030;-72
2023/09/24 01:15:49;;;;;;;0.68;0.55;;;;;;;;;;1029802;28;20038;-72
2023/09/24 01:16:19;;;;;;;0.30;0.30;;;;;;;;;;1029507;28;20019;-74
2023/09/24 01:16:50;;;;;;;0.77;0.77;;;;;;;;;;1030438;28;20027;-74
2023/09/24 01:17:20;;;;;;;3.08;1.30;;;;;;;;;;1029413;28;20027;-74
2023/09/24 01:17:52;;;;;;;5.25;0.88;;;;;;;;;;1030922;28;20431;-74
2023/09/24 01:18:23;;;;;;;0.45;0.45;;;;;;;;;;1030202;28;20597;-74
2023/09/24 01:18:53;;;;;;;0.60;0.60;;;;;;;;;;1024844;28;20026;-74
2023/09/24 01:19:25;;;;;;;1.13;1.05;;;;;;;;;;1025501;28;20511;-74
2023/09/24 01:19:56;;;;;;;0.20;0.20;;;;;;;;;;1025647;28;20027;-74
2023/09/24 01:20:30;;;;;;;3.55;2.50;;;;;;;;;;1025780;28;20546;-74
2023/09/24 01:21:01;;;;;;;1.45;1.35;;;;;;;;;;1029770;28;20027;-74
2023/09/24 01:21:31;;;;;;;2.00;1.83;;;;;;;;;;1029702;28;20073;-74
2023/09/24 01:22:02;;;;;;;0.85;0.57;;;;;;;;;;1029895;28;20125;-74
2023/09/24 01:22:32;;;;;;;0.77;0.77;;;;;;;;;;1029261;28;20022;-74
2023/09/24 01:23:06;;;;;;;1.13;0.80;;;;;;;;;;1024625;28;20023;-72
2023/09/24 01:23:37;;;;;;;1.52;1.42;;;;;;;;;;1025779;28;20082;-72
2023/09/24 01:24:08;;;;;;;0.10;0.10;;;;;;;;;;1025762;28;20049;-72
2023/09/24 01:24:38;;;;;;;1.13;0.80;;;;;;;;;;1022181;28;20058;-72
2023/09/24 01:25:09;;;;;;;0.35;0.35;;;;;;;;;;1026099;28;20038;-72
2023/09/24 01:25:40;;;;;;;2.40;1.13;;;;;;;;;;1025811;28;20113;-72
2023/09/24 01:26:12;;;;;;;0.77;0.77;;;;;;;;;;1025134;28;20518;-72
2023/09/24 01:26:44;;;;;;;1.15;0.55;;;;;;;;;;1029047;28;20023;-72
2023/09/24 01:27:14;;;;;;;2.13;1.27;;;;;;;;;;1029970;28;20031;-72
2023/09/24 01:27:45;;;;;;;1.17;1.08;;;;;;;;;;1030101;28;20100;-72
2023/09/24 01:28:16;;;;;;;1.00;0.43;;;;;;;;;;1029964;28;20413;-73
2023/09/24 01:28:47;;;;;;;0.10;0.10;;;;;;;;;;1029630;28;20022;-74
2023/09/24 01:29:17;;;;;;;1.35;0.85;;;;;;;;;;1029546;28;20463;-74
2023/09/24 01:29:48;;;;;;;1.58;1.48;;;;;;;;;;1029614;28;20022;-74
2023/09/24 01:30:18;;;;;;;0.60;0.57;;;;;;;;;;1029760;28;20030;-74
2023/09/24 01:30:49;;;;;;;0.45;0.45;;;;;;;;;;1024599;28;20111;-72
2023/09/24 01:31:19;;;;;;;3.72;1.27;;;;;;;;;;1025528;28;20028;-72
2023/09/24 01:31:51;;;;;;;2.88;1.13;;;;;;;;;;1021765;29;20023;-74
2023/09/24 01:32:21;;;;;;;0.25;0.25;;;;;;;;;;1021965;29;20039;-73
2023/09/24 01:32:52;;;;;;;1.70;1.60;;;;;;;;;;1024711;28;20463;-74
2023/09/24 01:33:23;;;;;;;1.90;1.15;;;;;;;;;;1025954;28;20031;-74
2023/09/24 01:33:53;;;;;;;3.85;2.83;;;;;;;;;;1030067;28;20030;-74
2023/09/24 01:34:24;;;;;;;1.38;1.27;;;;;;;;;;1030153;28;20127;-74
2023/09/24 01:34:54;;;;;;;3.70;1.85;;;;;;;;;;1030663;28;20045;-74
2023/09/24 01:35:27;;;;;;;0.57;0.57;;;;;;;;;;1029231;28;20023;-74
2023/09/24 01:35:58;;;;;;;0.50;0.50;;;;;;;;;;1029249;28;20054;-74
2023/09/24 01:36:29;;;;;;;0.73;0.73;;;;;;;;;;1029474;28;20078;-72
2023/09/24 01:37:04;;;;;;;0.70;0.70;;;;;;;;;;1029449;28;20441;-72
2023/09/24 01:37:35;;;;;;;0.80;0.73;;;;;;;;;;1025901;28;20157;-72
2023/09/24 01:38:06;;;;;;;2.17;1.02;;;;;;;;;;1024744;28;20511;-72
2023/09/24 01:38:40;;;;;;;0.95;0.85;;;;;;;;;;1026127;28;20022;-72
2023/09/24 01:39:15;;;;;;;0.57;0.57;;;;;;;;;;1026087;28;20033;-72
2023/09/24 01:39:46;;;;;;;1.45;0.90;;;;;;;;;;1026341;28;20049;-72
2023/09/24 01:40:18;;;;;;;1.38;0.82;;;;;;;;;;1025283;28;20487;-72
2023/09/24 01:40:49;;;;;;;0.22;0.22;;;;;;;;;;1025342;28;20035;-72
2023/09/24 01:41:20;;;;;;;0.00;0.00;;;;;;;;;;1025837;28;20458;-72
2023/09/24 01:41:51;;;;;;;0.20;0.20;;;;;;;;;;1025318;28;20022;-72
2023/09/24 01:42:21;;;;;;;8.88;1.73;;;;;;;;;;1025186;28;20054;-73
2023/09/24 01:42:55;;;;;;;0.57;0.57;;;;;;;;;;1026413;28;20073;-73
2023/09/24 01:43:25;;;;;;;1.23;1.10;;;;;;;;;;1027345;28;20074;-74
2023/09/24 01:43:57;;;;;;;0.50;0.30;;;;;;;;;;1029952;28;20120;-72
2023/09/24 01:44:30;;;;;;;4.43;2.53;;;;;;;;;;1029194;28;20023;-71
2023/09/24 01:45:03;;;;;;;0.20;0.20;;;;;;;;;;1030503;28;20018;-72
2023/09/24 01:45:34;;;;;;;0.20;0.20;;;;;;;;;;1029600;28;20029;-72
2023/09/24 01:46:08;;;;;;;1.35;1.25;;;;;;;;;;1029603;28;20011;-71
2023/09/24 01:46:39;;;;;;;0.82;0.57;;;;;;;;;;1029368;28;20019;-71
2023/09/24 01:47:09;;;;;;;1.33;1.27;;;;;;;;;;1029441;28;20015;-71
2023/09/24 01:47:40;;;;;;;0.57;0.50;;;;;;;;;;1029756;28;20123;-71
2023/09/24 01:48:11;;;;;;;2.17;1.50;;;;;;;;;;1025068;28;20049;-71
2023/09/24 01:48:43;;;;;;;0.17;0.17;;;;;;;;;;1025276;28;20118;-71
2023/09/24 01:49:14;;;;;;;1.08;0.98;;;;;;;;;;1025229;28;20027;-71
2023/09/24 01:49:44;;;;;;;0.30;0.30;;;;;;;;;;1025919;28;20023;-71
2023/09/24 01:50:16;;;;;;;1.60;1.05;;;;;;;;;;1031230;28;20062;-71
2023/09/24 01:50:47;;;;;;;2.20;1.48;;;;;;;;;;1031319;28;20027;-71
2023/09/24 01:51:20;;;;;;;1.30;1.20;;;;;;;;;;1031498;28;20035;-72
2023/09/24 01:51:50;;;;;;;0.40;0.40;;;;;;;;;;1029505;28;20153;-72
2023/09/24 01:52:20;;;;;;;0.57;0.57;;;;;;;;;;1029072;28;20069;-72
2023/09/24 01:52:51;;;;;;;1.75;1.08;;;;;;;;;;1029202;28;20023;-72
2023/09/24 01:53:22;;;;;;;0.68;0.68;;;;;;;;;;1030472;28;20030;-72
2023/09/24 01:53:53;;;;;;;1.20;1.10;;;;;;;;;;1029540;28;20058;-72
2023/09/24 01:54:25;;;;;;;1.48;1.40;;;;;;;;;;1029610;28;20031;-72
2023/09/24 01:54:55;;;;;;;0.63;0.47;;;;;;;;;;1029444;28;20027;-72
2023/09/24 01:55:26;;;;;;;0.63;0.63;;;;;;;;;;1030042;28;20019;-74
2023/09/24 01:55:57;;;;;;;0.45;0.45;;;;;;;;;;1031327;28;20133;-74
2023/09/24 01:56:27;;;;;;;0.95;0.55;;;;;;;;;;1031492;28;20100;-74
2023/09/24 01:56:58;;;;;;;0.80;0.80;;;;;;;;;;1031448;28;20529;-74
2023/09/24 01:57:29;;;;;;;0.55;0.43;;;;;;;;;;1027371;28;20687;-74
2023/09/24 01:57:59;;;;;;;2.03;0.60;;;;;;;;;;1026274;28;20066;-73
2023/09/24 01:58:31;;;;;;;1.75;0.82;;;;;;;;;;1025479;28;20022;-72
2023/09/24 01:59:01;;;;;;;0.60;0.60;;;;;;;;;;1025896;28;20157;-72
2023/09/24 01:59:32;;;;;;;2.20;1.30;;;;;;;;;;1029876;28;20435;-72
2023/09/24 02:00:11;;;;;;;2.10;1.10;;;;;;;;;;1031274;28;20030;-74
2023/09/24 02:00:42;;;;;;;1.90;1.07;;;;;;;;;;1030765;28;20026;-74
2023/09/24 02:01:12;;;;;;;0.55;0.55;;;;;;;;;;1029547;28;20293;-74
2023/09/24 02:01:45;;;;;;;2.13;0.95;;;;;;;;;;1029349;28;20019;-74
2023/09/24 02:02:16;;;;;;;5.63;0.75;;;;;;;;;;1029512;28;20065;-74
2023/09/24 02:02:48;;;;;;;0.68;0.68;;;;;;;;;;1029253;28;20529;-74
2023/09/24 02:03:19;;;;;;;1.00;0.65;;;;;;;;;;1029529;28;20041;-74
2023/09/24 02:03:49;;;;;;;1.45;0.95;;;;;;;;;;1025691;28;20023;-74
2023/09/24 02:04:20;;;;;;;6.47;2.00;;;;;;;;;;1025323;28;20031;-74
2023/09/24 02:04:51;;;;;;;2.22;1.42;;;;;;;;;;1032121;23;20043;-71
2023/09/24 02:05:22;;;;;;;0.85;0.65;;;;;;;;;;1027527;28;20018;-71
2023/09/24 02:05:53;;;;;;;0.98;0.88;;;;;;;;;;1029784;28;20027;-72
2023/09/24 02:06:23;;;;;;;1.67;0.75;;;;;;;;;;1030001;28;20022;-72
2023/09/24 02:06:54;;;;;;;3.42;0.50;;;;;;;;;;1029849;28;20034;-71
2023/09/24 02:07:24;;;;;;;1.23;0.75;;;;;;;;;;1027542;28;20026;-71
2023/09/24 02:07:54;;;;;;;0.20;0.20;;;;;;;;;;1025546;28;20026;-71
2023/09/24 02:08:25;;;;;;;3.20;2.17;;;;;;;;;;1025550;28;20027;-71
2023/09/24 02:08:55;;;;;;;1.75;1.30;;;;;;;;;;1025375;28;20054;-72
2023/09/24 02:09:26;;;;;;;0.10;0.10;;;;;;;;;;1025660;28;20035;-71
2023/09/24 02:09:56;;;;;;;1.65;1.55;;;;;;;;;;1025598;28;20047;-71
2023/09/24 02:10:27;;;;;;;1.00;0.95;;;;;;;;;;1020632;29;20126;-72
2023/09/24 02:10:57;;;;;;;1.63;0.80;;;;;;;;;;1021440;29;20031;-71
2023/09/24 02:11:28;;;;;;;1.20;1.10;;;;;;;;;;1021829;29;20019;-74
2023/09/24 02:11:58;;;;;;;2.17;1.85;;;;;;;;;;1021331;28;20063;-74
2023/09/24 02:12:30;;;;;;;2.17;1.27;;;;;;;;;;1027358;28;20117;-74
2023/09/24 02:13:00;;;;;;;0.10;0.10;;;;;;;;;;1025932;28;20067;-74
2023/09/24 02:13:31;;;;;;;0.40;0.40;;;;;;;;;;1025713;28;20029;-74
2023/09/24 02:14:02;;;;;;;0.40;0.32;;;;;;;;;;1025513;28;20018;-74
2023/09/24 02:14:33;;;;;;;2.78;1.27;;;;;;;;;;1025439;28;20090;-74
2023/09/24 02:15:15;;;;;;;5.18;1.13;;;;;;;;;;1025362;28;20050;-74
2023/09/24 02:15:48;;;;;;;0.70;0.43;;;;;;;;;;1024702;28;20054;-74
2023/09/24 02:16:19;;;;;;;0.50;0.50;;;;;;;;;;1025463;28;20030;-74
2023/09/24 02:16:50;;;;;;;0.88;0.55;;;;;;;;;;1025274;28;20105;-74
2023/09/24 02:17:21;;;;;;;1.85;1.75;;;;;;;;;;1025509;28;20506;-74
2023/09/24 02:17:52;;;;;;;0.93;0.75;;;;;;;;;;1025199;28;20027;-72
2023/09/24 02:18:22;;;;;;;0.20;0.20;;;;;;;;;;1025702;28;20114;-73
2023/09/24 02:18:53;;;;;;;0.10;0.10;;;;;;;;;;1025558;28;20113;-73
2023/09/24 02:19:25;;;;;;;1.95;1.27;;;;;;;;;;1020610;29;20051;-73
2023/09/24 02:19:55;;;;;;;3.88;1.80;;;;;;;;;;1022329;29;20050;-73
2023/09/24 02:20:31;;;;;;;0.75;0.43;;;;;;;;;;1021299;29;20035;-73
2023/09/24 02:21:02;;;;;;;0.38;0.38;;;;;;;;;;1021558;29;20032;-73
2023/09/24 02:21:32;;;;;;;6.97;1.48;;;;;;;;;;1025918;28;20166;-73
2023/09/24 02:22:03;;;;;;;1.08;0.98;;;;;;;;;;1025965;28;20395;-73
2023/09/24 02:22:34;;;;;;;0.30;0.30;;;;;;;;;;1025279;28;20045;-74
2023/09/24 02:23:04;;;;;;;0.17;0.17;;;;;;;;;;1025929;28;20503;-74
2023/09/24 02:23:36;;;;;;;0.20;0.20;;;;;;;;;;1020617;29;20388;-73
2023/09/24 02:24:08;;;;;;;3.28;0.65;;;;;;;;;;1021275;29;20108;-73
2023/09/24 02:24:40;;;;;;;1.30;1.17;;;;;;;;;;1021399;29;20160;-73
2023/09/24 02:25:10;;;;;;;0.60;0.40;;;;;;;;;;1022348;29;20031;-73
2023/09/24 02:25:41;;;;;;;2.28;1.13;;;;;;;;;;1025049;28;20022;-73
2023/09/24 02:26:13;;;;;;;0.13;0.13;;;;;;;;;;1025591;28;20026;-73
2023/09/24 02:26:44;;;;;;;1.38;0.68;;;;;;;;;;1024277;28;20029;-73
2023/09/24 02:27:15;;;;;;;1.98;1.05;;;;;;;;;;1024748;28;20033;-73
2023/09/24 02:27:46;;;;;;;0.47;0.47;;;;;;;;;;1021315;29;20523;-73
2023/09/24 02:28:18;;;;;;;0.65;0.52;;;;;;;;;;1021674;29;20471;-73
2023/09/24 02:28:48;;;;;;;2.83;0.70;;;;;;;;;;1024765;28;20645;-73
2023/09/24 02:29:19;;;;;;;0.80;0.80;;;;;;;;;;1025833;28;20027;-73
2023/09/24 02:29:50;;;;;;;0.52;0.47;;;;;;;;;;1025991;28;20054;-73
2023/09/24 02:30:21;;;;;;;0.52;0.52;;;;;;;;;;1025686;28;20030;-73
2023/09/24 02:30:53;;;;;;;1.00;0.80;;;;;;;;;;1025426;28;20027;-73
2023/09/24 02:31:23;;;;;;;0.73;0.65;;;;;;;;;;1025084;28;20077;-73
2023/09/24 02:31:54;;;;;;;0.20;0.20;;;;;;;;;;1025275;28;20027;-73
2023/09/24 02:32:27;;;;;;;1.02;1.02;;;;;;;;;;1025698;28;20031;-73
2023/09/24 02:32:58;;;;;;;0.95;0.47;;;;;;;;;;1025528;28;20015;-73
2023/09/24 02:33:28;;;;;;;3.53;2.13;;;;;;;;;;1025937;28;20019;-73
2023/09/24 02:33:59;;;;;;;0.25;0.25;;;;;;;;;;1025989;28;20463;-73
2023/09/24 02:34:29;;;;;;;0.17;0.15;;;;;;;;;;1026622;28;20042;-73
2023/09/24 02:35:00;;;;;;;0.00;0.00;;;;;;;;;;1025414;28;20106;-73
2023/09/24 02:35:30;;;;;;;1.48;1.35;;;;;;;;;;1026583;28;20177;-73
2023/09/24 02:36:01;;;;;;;0.55;0.50;;;;;;;;;;1025461;28;20031;-73
2023/09/24 02:36:31;;;;;;;2.08;1.08;;;;;;;;;;1025453;28;20085;-73
2023/09/24 02:37:02;;;;;;;8.38;0.82;;;;;;;;;;1025625;28;20023;-73
2023/09/24 02:37:33;;;;;;;0.55;0.52;;;;;;;;;;1025348;28;20027;-73
2023/09/24 02:38:07;;;;;;;3.78;1.58;;;;;;;;;;1025412;28;20027;-73
2023/09/24 02:38:37;;;;;;;0.20;0.20;;;;;;;;;;1024919;28;20031;-73
2023/09/24 02:39:08;;;;;;;0.70;0.70;;;;;;;;;;1020506;29;20404;-73
2023/09/24 02:39:38;;;;;;;0.70;0.70;;;;;;;;;;1022329;29;20019;-73
2023/09/24 02:40:15;;;;;;;0.20;0.20;;;;;;;;;;1021235;29;20063;-73
2023/09/24 02:40:46;;;;;;;0.98;0.55;;;;;;;;;;1022241;28;20523;-73
2023/09/24 02:41:17;;;;;;;0.45;0.43;;;;;;;;;;1025965;28;20038;-73
2023/09/24 02:41:49;;;;;;;1.85;0.90;;;;;;;;;;1024994;28;20469;-73
2023/09/24 02:42:20;;;;;;;0.55;0.55;;;;;;;;;;1026264;28;20431;-73
2023/09/24 02:42:52;;;;;;;6.78;1.02;;;;;;;;;;1024352;28;20127;-73
2023/09/24 02:43:23;;;;;;;0.10;0.10;;;;;;;;;;1025595;28;20113;-73
2023/09/24 02:43:54;;;;;;;0.90;0.43;;;;;;;;;;1025005;28;20034;-73
2023/09/24 02:44:25;;;;;;;1.55;0.65;;;;;;;;;;1025201;28;20503;-73
2023/09/24 02:44:56;;;;;;;0.20;0.20;;;;;;;;;;1025430;28;20036;-73
2023/09/24 02:45:29;;;;;;;1.63;1.48;;;;;;;;;;1025683;28;20063;-73
2023/09/24 02:46:00;;;;;;;0.13;0.13;;;;;;;;;;1025923;28;20491;-73
2023/09/24 02:46:30;;;;;;;1.08;0.73;;;;;;;;;;1025864;28;20025;-73
2023/09/24 02:47:00;;;;;;;8.02;2.42;;;;;;;;;;1024649;28;20022;-73
2023/09/24 02:47:31;;;;;;;0.38;0.38;;;;;;;;;;1025241;28;20019;-73
2023/09/24 02:48:06;;;;;;;1.67;1.52;;;;;;;;;;1025783;28;20016;-73
2023/09/24 02:48:36;;;;;;;3.40;1.77;;;;;;;;;;1021468;29;20385;-73
2023/09/24 02:49:07;;;;;;;0.30;0.30;;;;;;;;;;1021604;29;20032;-73
2023/09/24 02:49:37;;;;;;;3.45;1.15;;;;;;;;;;1016575;29;20098;-73
2023/09/24 02:50:14;;;;;;;4.25;1.27;;;;;;;;;;1017677;29;20024;-73
2023/09/24 02:50:44;;;;;;;4.80;3.00;;;;;;;;;;1021257;29;20028;-73
2023/09/24 02:51:15;;;;;;;2.85;1.42;;;;;;;;;;1023224;28;20043;-73
2023/09/24 02:51:46;;;;;;;0.75;0.55;;;;;;;;;;1025478;28;20042;-73
2023/09/24 02:52:16;;;;;;;1.25;1.15;;;;;;;;;;1024871;28;20015;-73
2023/09/24 02:52:47;;;;;;;22.05;1.48;;;;;;;;;;1024451;28;20055;-73
2023/09/24 02:53:17;;;;;;;16.40;1.67;;;;;;;;;;1025539;28;20057;-74
2023/09/24 02:53:48;;;;;;;0.55;0.55;;;;;;;;;;1025658;28;20475;-73
2023/09/24 02:54:18;;;;;;;1.33;1.08;;;;;;;;;;1024960;28;20035;-73
2023/09/24 02:54:48;;;;;;;2.40;1.75;;;;;;;;;;1025143;28;20449;-74
2023/09/24 02:55:19;;;;;;;3.08;1.30;;;;;;;;;;1025252;28;20031;-73
2023/09/24 02:55:49;;;;;;;0.25;0.25;;;;;;;;;;1021042;29;20027;-74
2023/09/24 02:56:21;;;;;;;0.40;0.40;;;;;;;;;;1021173;29;20015;-73
2023/09/24 02:56:52;;;;;;;0.70;0.70;;;;;;;;;;1021208;29;20408;-73
2023/09/24 02:57:22;;;;;;;1.67;0.73;;;;;;;;;;1020776;29;20114;-73
2023/09/24 02:57:53;;;;;;;1.77;0.75;;;;;;;;;;1023180;29;20476;-73
2023/09/24 02:58:23;;;;;;;7.78;2.30;;;;;;;;;;1023366;29;20077;-73
2023/09/24 02:58:54;;;;;;;3.90;1.65;;;;;;;;;;1023219;29;20031;-73
2023/09/24 02:59:24;;;;;;;0.55;0.52;;;;;;;;;;1023365;28;20078;-72
2023/09/24 02:59:57;;;;;;;0.50;0.32;;;;;;;;;;1026474;28;20030;-73
2023/09/24 03:00:35;;;;;;;1.23;1.17;;;;;;;;;;1024977;28;20062;-72
2023/09/24 03:01:11;;;;;;;2.03;1.88;;;;;;;;;;1025070;28;20027;-72
2023/09/24 03:01:48;;;;;;;10.40;1.02;;;;;;;;;;1026566;28;20023;-72
2023/09/24 03:02:18;;;;;;;0.17;0.17;;;;;;;;;;1023078;28;20110;-73
2023/09/24 03:02:49;;;;;;;1.05;0.95;;;;;;;;;;1023253;29;20015;-73
2023/09/24 03:03:19;;;;;;;0.85;0.85;;;;;;;;;;1023288;29;20031;-72
2023/09/24 03:03:50;;;;;;;1.58;1.27;;;;;;;;;;1023458;28;20109;-73
2023/09/24 03:04:20;;;;;;;7.95;1.70;;;;;;;;;;1023282;29;20046;-73
2023/09/24 03:04:51;;;;;;;0.40;0.40;;;;;;;;;;1021731;29;20083;-73
2023/09/24 03:05:24;;;;;;;0.90;0.90;;;;;;;;;;1021562;29;20019;-73
2023/09/24 03:05:54;;;;;;;0.43;0.43;;;;;;;;;;1022038;28;20034;-73
2023/09/24 03:06:26;;;;;;;0.00;0.00;;;;;;;;;;1025869;28;20114;-74
2023/09/24 03:06:57;;;;;;;0.10;0.10;;;;;;;;;;1025748;28;20063;-73
2023/09/24 03:07:28;;;;;;;1.48;1.30;;;;;;;;;;1025701;28;20018;-73